Kaio Maru — JD2067 — position and weather

sailwx.info

Track history (hours):
 
Tides and Currents Weather Stations Pressure Air Temp Water Temp Dewpoint Dewpoint Depression Visibility Wind Speed Wind Dir Waves Ship Positions

Kaio Maru

Last reported at 2015-Apr-02 07:33 UTC. Time now 2015-Apr-02 07:52 UTC.
Position N 35°38' E 139°45'.

Length 36 m; draft 3.2 m.

Type: Tug. MMSI: 431001455.

Date/timePositionNaut miles runAvg speedWind from/ knotsBaromVisibWave heightAir tempDewpointWater temp
2015-Apr-02 07:33N 35°38' E 139°45'0 0.0
2015-Apr-02 06:33N 35°38' E 139°45'0 0.0
2015-Apr-02 05:33N 35°38' E 139°45'0 0.0
2015-Apr-02 04:33N 35°38' E 139°45'0 0.0
2015-Apr-02 03:33N 35°38' E 139°45'0 0.0
2015-Apr-02 02:33N 35°38' E 139°45'0 0.0
2015-Apr-02 01:33N 35°38' E 139°45'0 0.0
2015-Apr-02 00:33N 35°38' E 139°45'0 0.0
2015-Apr-01 23:33N 35°38' E 139°45'0 0.0
2015-Apr-01 22:33N 35°38' E 139°45'0 0.0
2015-Apr-01 21:33N 35°38' E 139°45'0 0.0
2015-Apr-01 20:33N 35°38' E 139°45'0 0.0
2015-Apr-01 19:33N 35°38' E 139°45'0 0.0
2015-Apr-01 18:32N 35°38' E 139°45'0 0.0
2015-Apr-01 17:33N 35°38' E 139°45'0 0.0
2015-Apr-01 16:33N 35°38' E 139°45'0 0.0
2015-Apr-01 15:33N 35°38' E 139°45'0 0.0
2015-Apr-01 14:33N 35°38' E 139°45'0 0.0
2015-Apr-01 13:32N 35°38' E 139°45'0 0.0
2015-Apr-01 12:33N 35°38' E 139°45'0 0.0
2015-Apr-01 11:32N 35°38' E 139°45'2 1.8
2015-Apr-01 10:33N 35°36' E 139°46'2 2.0
2015-Apr-01 09:33N 35°35' E 139°48'2 1.8
2015-Apr-01 08:33N 35°37' E 139°47'2 1.8
2015-Apr-01 07:33N 35°38' E 139°46'0 0.0
2015-Apr-01 06:33N 35°38' E 139°46'0 0.0
2015-Apr-01 05:33N 35°38' E 139°46'0 0.0
2015-Apr-01 04:33N 35°38' E 139°46'0 0.0
2015-Apr-01 03:33N 35°38' E 139°46'0 0.0
2015-Apr-01 02:32N 35°38' E 139°46'0 0.1
2015-Apr-01 01:33N 35°38' E 139°45'0 0.1
2015-Apr-01 00:33N 35°38' E 139°46'0 0.0
2015-Mar-31 23:33N 35°38' E 139°46'1 0.6
2015-Mar-31 22:33N 35°38' E 139°46'4 3.6
2015-Mar-31 21:33N 35°35' E 139°48'4 4.2
2015-Mar-31 20:33N 35°38' E 139°46'0 0.0
2015-Mar-31 19:33N 35°38' E 139°46'0 0.0
2015-Mar-31 18:33N 35°38' E 139°46'0 0.0
2015-Mar-31 17:33N 35°38' E 139°46'0 0.0
2015-Mar-31 16:33N 35°38' E 139°46'0 0.0
2015-Mar-31 15:33N 35°38' E 139°46'0 0.0
2015-Mar-31 14:33N 35°38' E 139°46'0 0.0
2015-Mar-31 13:33N 35°38' E 139°46'0 0.0
2015-Mar-31 12:33N 35°38' E 139°46'0 0.0
2015-Mar-31 11:33N 35°38' E 139°46'0 0.0
2015-Mar-31 10:33N 35°38' E 139°46'0 0.0
2015-Mar-31 09:33N 35°38' E 139°46'0 0.0
2015-Mar-31 08:32N 35°38' E 139°46'0 0.0
2015-Mar-31 07:33N 35°38' E 139°46'0 0.0
2015-Mar-31 06:33N 35°38' E 139°46'0 0.0
2015-Mar-31 05:33N 35°38' E 139°46'0 0.0
2015-Mar-31 04:33N 35°38' E 139°46'0 0.0
2015-Mar-31 03:33N 35°38' E 139°46'0 0.0
2015-Mar-31 02:33N 35°38' E 139°46'0 0.0
2015-Mar-31 01:33N 35°38' E 139°46'0 0.0
2015-Mar-31 00:33N 35°38' E 139°46'0 0.0
2015-Mar-30 23:33N 35°38' E 139°46'0 0.0
2015-Mar-30 22:33N 35°38' E 139°46'0 0.0
2015-Mar-30 21:33N 35°38' E 139°46'3 2.8
2015-Mar-30 20:33N 35°36' E 139°48'0 0.0
2015-Mar-30 19:33N 35°36' E 139°48'2 1.5
2015-Mar-30 18:33N 35°37' E 139°46'2 1.7
2015-Mar-30 17:33N 35°38' E 139°46'0 0.0
2015-Mar-30 16:33N 35°38' E 139°46'0 0.0
2015-Mar-30 15:33N 35°38' E 139°46'0 0.0
2015-Mar-30 14:33N 35°38' E 139°46'0 0.0
2015-Mar-30 13:33N 35°38' E 139°46'0 0.0
2015-Mar-30 12:33N 35°38' E 139°46'0 0.0
2015-Mar-30 11:33N 35°38' E 139°46'0 0.0
2015-Mar-30 10:33N 35°38' E 139°45'0 0.0
2015-Mar-30 09:33N 35°38' E 139°46'0 0.0
2015-Mar-30 08:33N 35°38' E 139°46'0 0.0
2015-Mar-30 07:33N 35°38' E 139°46'0 0.0
2015-Mar-30 06:33N 35°38' E 139°46'0 0.0
2015-Mar-30 05:33N 35°38' E 139°46'0 0.0
2015-Mar-30 04:33N 35°38' E 139°46'0 0.0
2015-Mar-30 03:33N 35°38' E 139°46'0 0.0
2015-Mar-30 02:33N 35°38' E 139°46'0 0.0
2015-Mar-30 01:33N 35°38' E 139°46'0 0.0
2015-Mar-30 00:33N 35°38' E 139°46'0 0.0
2015-Mar-29 23:33N 35°38' E 139°46'2 2.4
2015-Mar-29 22:33N 35°36' E 139°46'6 5.9
2015-Mar-29 21:33N 35°33' E 139°53'8 7.7
2015-Mar-29 20:33N 35°38' E 139°46'0 0.0
2015-Mar-29 19:33N 35°38' E 139°46'0 0.0
2015-Mar-29 18:33N 35°38' E 139°46'0 0.0
2015-Mar-29 17:33N 35°38' E 139°46'0 0.0
2015-Mar-29 16:33N 35°38' E 139°46'0 0.0
2015-Mar-29 15:33N 35°38' E 139°46'0 0.0
2015-Mar-29 14:33N 35°38' E 139°46'0 0.0
2015-Mar-29 13:33N 35°38' E 139°46'0 0.0
2015-Mar-29 12:33N 35°38' E 139°46'0 0.0
2015-Mar-29 11:33N 35°38' E 139°46'0 0.0
2015-Mar-29 10:33N 35°38' E 139°46'0 0.0
2015-Mar-29 09:33N 35°38' E 139°46'0 0.0
2015-Mar-29 08:33N 35°38' E 139°46'0 0.0
2015-Mar-29 07:33N 35°38' E 139°46'0 0.0
2015-Mar-29 06:33N 35°38' E 139°46'0 0.0
2015-Mar-29 05:33N 35°38' E 139°46'0 0.0
2015-Mar-29 04:33N 35°38' E 139°46'0 0.0
2015-Mar-29 03:33N 35°38' E 139°46'0 0.0
2015-Mar-29 02:33N 35°38' E 139°46'0 0.0
2015-Mar-29 01:33N 35°38' E 139°46'0 0.0
2015-Mar-29 00:33N 35°38' E 139°46'0 0.0
2015-Mar-28 23:33N 35°38' E 139°46'2 1.7
2015-Mar-28 22:33N 35°37' E 139°46'4 3.5
2015-Mar-28 21:33N 35°34' E 139°49'5 4.8
2015-Mar-28 20:33N 35°38' E 139°46'0 0.2
2015-Mar-28 19:33N 35°38' E 139°45'0 0.0
2015-Mar-28 18:33N 35°38' E 139°45'0 0.0
2015-Mar-28 17:33N 35°38' E 139°45'0 0.0
2015-Mar-28 16:33N 35°38' E 139°45'0 0.0
2015-Mar-28 15:33N 35°38' E 139°45'0 0.0
2015-Mar-28 14:33N 35°38' E 139°45'0 0.0
2015-Mar-28 13:33N 35°38' E 139°45'0 0.0
2015-Mar-28 12:33N 35°38' E 139°45'0 0.0
2015-Mar-28 11:33N 35°38' E 139°45'0 0.0
2015-Mar-28 10:33N 35°38' E 139°45'2 1.7
2015-Mar-28 09:33N 35°37' E 139°47'6 5.7
2015-Mar-28 08:33N 35°33' E 139°52'7 7.4
2015-Mar-28 07:33N 35°38' E 139°46'0 0.0
2015-Mar-28 06:33N 35°38' E 139°46'0 0.0
2015-Mar-28 05:33N 35°38' E 139°46'0 0.0
2015-Mar-28 04:33N 35°38' E 139°46'0 0.0
2015-Mar-28 03:33N 35°38' E 139°46'0 0.0
2015-Mar-28 02:33N 35°38' E 139°46'0 0.0
2015-Mar-28 01:33N 35°38' E 139°46'0 0.0
2015-Mar-28 00:33N 35°38' E 139°46'3 3.0
2015-Mar-27 23:33N 35°35' E 139°47'0 0.3
2015-Mar-27 22:33N 35°35' E 139°47'0 0.0
2015-Mar-27 21:33N 35°35' E 139°47'1 1.4
2015-Mar-27 20:33N 35°37' E 139°46'2 1.6
2015-Mar-27 19:33N 35°38' E 139°45'0 0.0
2015-Mar-27 18:33N 35°38' E 139°45'0 0.0
2015-Mar-27 17:33N 35°38' E 139°45'0 0.0
2015-Mar-27 16:33N 35°38' E 139°45'0 0.0
2015-Mar-27 15:33N 35°38' E 139°45'0 0.0
2015-Mar-27 14:33N 35°38' E 139°45'0 0.0
2015-Mar-27 13:33N 35°38' E 139°45'0 0.0
2015-Mar-27 12:33N 35°38' E 139°45'0 0.0
2015-Mar-27 11:33N 35°38' E 139°45'0 0.0
2015-Mar-27 10:33N 35°38' E 139°45'0 0.0
2015-Mar-27 09:33N 35°38' E 139°45'0 0.0
2015-Mar-27 08:33N 35°38' E 139°45'0 0.0
2015-Mar-27 07:33N 35°38' E 139°45'0 0.0
2015-Mar-27 06:33N 35°38' E 139°45'0 0.0
2015-Mar-27 05:33N 35°38' E 139°45'0 0.0
2015-Mar-27 04:33N 35°38' E 139°45'0 0.0
2015-Mar-27 03:33N 35°38' E 139°45'0 0.0
2015-Mar-27 02:33N 35°38' E 139°45'0 0.0
2015-Mar-27 01:33N 35°38' E 139°45'0 0.0
2015-Mar-27 00:33N 35°38' E 139°45'1 1.0
2015-Mar-26 23:33N 35°37' E 139°46'3 2.7
2015-Mar-26 22:33N 35°35' E 139°48'1 1.0
2015-Mar-26 21:34N 35°36' E 139°48'3 2.8
2015-Mar-26 20:33N 35°38' E 139°45'0 0.0
2015-Mar-26 19:33N 35°38' E 139°45'0 0.0
2015-Mar-26 18:33N 35°38' E 139°45'0 0.0
2015-Mar-26 17:33N 35°38' E 139°45'0 0.0
2015-Mar-26 16:33N 35°38' E 139°45'0 0.0
2015-Mar-26 15:33N 35°38' E 139°45'0 0.0
2015-Mar-26 14:33N 35°38' E 139°45'0 0.0
2015-Mar-26 13:33N 35°38' E 139°45'0 0.0
2015-Mar-26 12:33N 35°38' E 139°45'0 0.0
2015-Mar-26 11:33N 35°38' E 139°45'0 0.0
2015-Mar-26 10:33N 35°38' E 139°45'3 2.8
2015-Mar-26 09:33N 35°36' E 139°47'3 2.6
2015-Mar-26 08:33N 35°34' E 139°50'3 3.0
2015-Mar-26 07:33N 35°37' E 139°47'2 2.2
2015-Mar-26 06:33N 35°38' E 139°46'0 0.0
2015-Mar-26 05:33N 35°38' E 139°46'0 0.0
2015-Mar-26 04:33N 35°38' E 139°46'0 0.0
2015-Mar-26 03:33N 35°38' E 139°46'0 0.1
2015-Mar-26 02:33N 35°38' E 139°45'0 0.1
2015-Mar-26 01:33N 35°38' E 139°46'0 0.0
2015-Mar-26 00:33N 35°38' E 139°46'0 0.0
2015-Mar-25 23:33N 35°38' E 139°46'3 2.6
2015-Mar-25 22:33N 35°36' E 139°47'3 3.0
2015-Mar-25 21:33N 35°34' E 139°50'3 2.7
2015-Mar-25 20:33N 35°35' E 139°47'1 1.0
2015-Mar-25 19:33N 35°36' E 139°46'2 2.0
2015-Mar-25 18:33N 35°38' E 139°45'0 0.0
2015-Mar-25 17:33N 35°38' E 139°45'0 0.0
2015-Mar-25 16:33N 35°38' E 139°45'0 0.0
2015-Mar-25 15:33N 35°38' E 139°45'0 0.0
2015-Mar-25 14:33N 35°38' E 139°45'0 0.0
2015-Mar-25 13:33N 35°38' E 139°45'0 0.0
2015-Mar-25 12:33N 35°38' E 139°45'0 0.0
2015-Mar-25 11:33N 35°38' E 139°45'0 0.0
2015-Mar-25 10:33N 35°38' E 139°45'0 0.0
2015-Mar-25 09:33N 35°38' E 139°45'0 0.0
2015-Mar-25 08:33N 35°38' E 139°45'0 0.0
2015-Mar-25 07:33N 35°38' E 139°45'0 0.0
2015-Mar-25 06:33N 35°38' E 139°45'0 0.0
2015-Mar-25 05:33N 35°38' E 139°45'3 2.6
2015-Mar-25 04:33N 35°36' E 139°46'4 4.4
2015-Mar-25 03:33N 35°33' E 139°51'4 4.2
2015-Mar-25 02:33N 35°36' E 139°47'0 0.2
2015-Mar-25 01:33N 35°36' E 139°47'2 1.9
2015-Mar-25 00:33N 35°35' E 139°48'4 4.2
2015-Mar-24 23:33N 35°38' E 139°45'0 0.0
2015-Mar-24 22:33N 35°38' E 139°45'0 0.0
2015-Mar-24 21:33N 35°38' E 139°45'0 0.0
2015-Mar-24 20:33N 35°38' E 139°45'0 0.0
2015-Mar-24 19:33N 35°38' E 139°45'0 0.0
2015-Mar-24 18:33N 35°38' E 139°45'0 0.0
2015-Mar-24 17:33N 35°38' E 139°45'0 0.0
2015-Mar-24 16:33N 35°38' E 139°45'0 0.0
2015-Mar-24 15:33N 35°38' E 139°45'0 0.0
2015-Mar-24 14:33N 35°38' E 139°45'0 0.0
2015-Mar-24 13:33N 35°38' E 139°45'0 0.0
2015-Mar-24 12:33N 35°38' E 139°45'0 0.0
2015-Mar-24 11:33N 35°38' E 139°45'0 0.0
2015-Mar-24 10:33N 35°38' E 139°45'0 0.0
2015-Mar-24 09:33N 35°38' E 139°45'0 0.0
2015-Mar-24 08:33N 35°38' E 139°45'0 0.0
2015-Mar-24 07:33N 35°38' E 139°45'2 1.6
2015-Mar-24 06:33N 35°37' E 139°46'3 3.3
2015-Mar-24 05:33N 35°34' E 139°49'5 4.7
2015-Mar-24 04:33N 35°38' E 139°45'0 0.0
2015-Mar-24 03:34N 35°38' E 139°45'0 0.0
2015-Mar-24 02:33N 35°38' E 139°45'0 0.0
2015-Mar-24 01:33N 35°38' E 139°45'0 0.0
2015-Mar-24 00:32N 35°38' E 139°45'1 1.5
2015-Mar-23 23:33N 35°37' E 139°46'3 2.7
2015-Mar-23 22:33N 35°35' E 139°48'2 1.6
2015-Mar-23 21:33N 35°34' E 139°50'5 5.4
2015-Mar-23 20:33N 35°38' E 139°45'0 0.0
2015-Mar-23 19:33N 35°38' E 139°45'0 0.0
2015-Mar-23 18:33N 35°38' E 139°45'0 0.0
2015-Mar-23 17:33N 35°38' E 139°45'0 0.0
2015-Mar-23 16:33N 35°38' E 139°45'0 0.0
2015-Mar-23 15:33N 35°38' E 139°45'0 0.0
2015-Mar-23 14:33N 35°38' E 139°45'0 0.0
2015-Mar-23 13:33N 35°38' E 139°45'0 0.0
2015-Mar-23 12:33N 35°38' E 139°45'0 0.0
2015-Mar-23 11:33N 35°38' E 139°45'0 0.0
2015-Mar-23 10:33N 35°38' E 139°45'2 2.2
2015-Mar-23 09:33N 35°36' E 139°47'3 2.8
2015-Mar-23 08:33N 35°34' E 139°48'3 3.0
2015-Mar-23 07:33N 35°36' E 139°47'  
Track history (hours):
 
Tides and Currents Weather Stations Pressure Air Temp Water Temp Dewpoint Dewpoint Depression Visibility Wind Speed Wind Dir Waves Ship Positions

Kaio Maru

Last reported at 2015-Apr-02 07:33 UTC. Time now 2015-Apr-02 07:52 UTC.
Position N 35°38' E 139°45'.

Length 36 m; draft 3.2 m.

Type: Tug. MMSI: 431001455.

Date/timePositionNaut miles runAvg speedWind from/ knotsBaromVisibWave heightAir tempDewpointWater temp
2015-Apr-02 07:33N 35°38' E 139°45'0 0.0
2015-Apr-02 06:33N 35°38' E 139°45'0 0.0
2015-Apr-02 05:33N 35°38' E 139°45'0 0.0
2015-Apr-02 04:33N 35°38' E 139°45'0 0.0
2015-Apr-02 03:33N 35°38' E 139°45'0 0.0
2015-Apr-02 02:33N 35°38' E 139°45'0 0.0
2015-Apr-02 01:33N 35°38' E 139°45'0 0.0
2015-Apr-02 00:33N 35°38' E 139°45'0 0.0
2015-Apr-01 23:33N 35°38' E 139°45'0 0.0
2015-Apr-01 22:33N 35°38' E 139°45'0 0.0
2015-Apr-01 21:33N 35°38' E 139°45'0 0.0
2015-Apr-01 20:33N 35°38' E 139°45'0 0.0
2015-Apr-01 19:33N 35°38' E 139°45'0 0.0
2015-Apr-01 18:32N 35°38' E 139°45'0 0.0
2015-Apr-01 17:33N 35°38' E 139°45'0 0.0
2015-Apr-01 16:33N 35°38' E 139°45'0 0.0
2015-Apr-01 15:33N 35°38' E 139°45'0 0.0
2015-Apr-01 14:33N 35°38' E 139°45'0 0.0
2015-Apr-01 13:32N 35°38' E 139°45'0 0.0
2015-Apr-01 12:33N 35°38' E 139°45'0 0.0
2015-Apr-01 11:32N 35°38' E 139°45'2 1.8
2015-Apr-01 10:33N 35°36' E 139°46'2 2.0
2015-Apr-01 09:33N 35°35' E 139°48'2 1.8
2015-Apr-01 08:33N 35°37' E 139°47'2 1.8
2015-Apr-01 07:33N 35°38' E 139°46'0 0.0
2015-Apr-01 06:33N 35°38' E 139°46'0 0.0
2015-Apr-01 05:33N 35°38' E 139°46'0 0.0
2015-Apr-01 04:33N 35°38' E 139°46'0 0.0
2015-Apr-01 03:33N 35°38' E 139°46'0 0.0
2015-Apr-01 02:32N 35°38' E 139°46'0 0.1
2015-Apr-01 01:33N 35°38' E 139°45'0 0.1
2015-Apr-01 00:33N 35°38' E 139°46'0 0.0
2015-Mar-31 23:33N 35°38' E 139°46'1 0.6
2015-Mar-31 22:33N 35°38' E 139°46'4 3.6
2015-Mar-31 21:33N 35°35' E 139°48'4 4.2
2015-Mar-31 20:33N 35°38' E 139°46'0 0.0
2015-Mar-31 19:33N 35°38' E 139°46'0 0.0
2015-Mar-31 18:33N 35°38' E 139°46'0 0.0
2015-Mar-31 17:33N 35°38' E 139°46'0 0.0
2015-Mar-31 16:33N 35°38' E 139°46'0 0.0
2015-Mar-31 15:33N 35°38' E 139°46'0 0.0
2015-Mar-31 14:33N 35°38' E 139°46'0 0.0
2015-Mar-31 13:33N 35°38' E 139°46'0 0.0
2015-Mar-31 12:33N 35°38' E 139°46'0 0.0
2015-Mar-31 11:33N 35°38' E 139°46'0 0.0
2015-Mar-31 10:33N 35°38' E 139°46'0 0.0
2015-Mar-31 09:33N 35°38' E 139°46'0 0.0
2015-Mar-31 08:32N 35°38' E 139°46'0 0.0
2015-Mar-31 07:33N 35°38' E 139°46'0 0.0
2015-Mar-31 06:33N 35°38' E 139°46'0 0.0
2015-Mar-31 05:33N 35°38' E 139°46'0 0.0
2015-Mar-31 04:33N 35°38' E 139°46'0 0.0
2015-Mar-31 03:33N 35°38' E 139°46'0 0.0
2015-Mar-31 02:33N 35°38' E 139°46'0 0.0
2015-Mar-31 01:33N 35°38' E 139°46'0 0.0
2015-Mar-31 00:33N 35°38' E 139°46'0 0.0
2015-Mar-30 23:33N 35°38' E 139°46'0 0.0
2015-Mar-30 22:33N 35°38' E 139°46'0 0.0
2015-Mar-30 21:33N 35°38' E 139°46'3 2.8
2015-Mar-30 20:33N 35°36' E 139°48'0 0.0
2015-Mar-30 19:33N 35°36' E 139°48'2 1.5
2015-Mar-30 18:33N 35°37' E 139°46'2 1.7
2015-Mar-30 17:33N 35°38' E 139°46'0 0.0
2015-Mar-30 16:33N 35°38' E 139°46'0 0.0
2015-Mar-30 15:33N 35°38' E 139°46'0 0.0
2015-Mar-30 14:33N 35°38' E 139°46'0 0.0
2015-Mar-30 13:33N 35°38' E 139°46'0 0.0
2015-Mar-30 12:33N 35°38' E 139°46'0 0.0
2015-Mar-30 11:33N 35°38' E 139°46'0 0.0
2015-Mar-30 10:33N 35°38' E 139°45'0 0.0
2015-Mar-30 09:33N 35°38' E 139°46'0 0.0
2015-Mar-30 08:33N 35°38' E 139°46'0 0.0
2015-Mar-30 07:33N 35°38' E 139°46'0 0.0
2015-Mar-30 06:33N 35°38' E 139°46'0 0.0
2015-Mar-30 05:33N 35°38' E 139°46'0 0.0
2015-Mar-30 04:33N 35°38' E 139°46'0 0.0
2015-Mar-30 03:33N 35°38' E 139°46'0 0.0
2015-Mar-30 02:33N 35°38' E 139°46'0 0.0
2015-Mar-30 01:33N 35°38' E 139°46'0 0.0
2015-Mar-30 00:33N 35°38' E 139°46'0 0.0
2015-Mar-29 23:33N 35°38' E 139°46'2 2.4
2015-Mar-29 22:33N 35°36' E 139°46'6 5.9
2015-Mar-29 21:33N 35°33' E 139°53'8 7.7
2015-Mar-29 20:33N 35°38' E 139°46'0 0.0
2015-Mar-29 19:33N 35°38' E 139°46'0 0.0
2015-Mar-29 18:33N 35°38' E 139°46'0 0.0
2015-Mar-29 17:33N 35°38' E 139°46'0 0.0
2015-Mar-29 16:33N 35°38' E 139°46'0 0.0
2015-Mar-29 15:33N 35°38' E 139°46'0 0.0
2015-Mar-29 14:33N 35°38' E 139°46'0 0.0
2015-Mar-29 13:33N 35°38' E 139°46'0 0.0
2015-Mar-29 12:33N 35°38' E 139°46'0 0.0
2015-Mar-29 11:33N 35°38' E 139°46'0 0.0
2015-Mar-29 10:33N 35°38' E 139°46'0 0.0
2015-Mar-29 09:33N 35°38' E 139°46'0 0.0
2015-Mar-29 08:33N 35°38' E 139°46'0 0.0
2015-Mar-29 07:33N 35°38' E 139°46'0 0.0
2015-Mar-29 06:33N 35°38' E 139°46'0 0.0
2015-Mar-29 05:33N 35°38' E 139°46'0 0.0
2015-Mar-29 04:33N 35°38' E 139°46'0 0.0
2015-Mar-29 03:33N 35°38' E 139°46'0 0.0
2015-Mar-29 02:33N 35°38' E 139°46'0 0.0
2015-Mar-29 01:33N 35°38' E 139°46'0 0.0
2015-Mar-29 00:33N 35°38' E 139°46'0 0.0
2015-Mar-28 23:33N 35°38' E 139°46'2 1.7
2015-Mar-28 22:33N 35°37' E 139°46'4 3.5
2015-Mar-28 21:33N 35°34' E 139°49'5 4.8
2015-Mar-28 20:33N 35°38' E 139°46'0 0.2
2015-Mar-28 19:33N 35°38' E 139°45'0 0.0
2015-Mar-28 18:33N 35°38' E 139°45'0 0.0
2015-Mar-28 17:33N 35°38' E 139°45'0 0.0
2015-Mar-28 16:33N 35°38' E 139°45'0 0.0
2015-Mar-28 15:33N 35°38' E 139°45'0 0.0
2015-Mar-28 14:33N 35°38' E 139°45'0 0.0
2015-Mar-28 13:33N 35°38' E 139°45'0 0.0
2015-Mar-28 12:33N 35°38' E 139°45'0 0.0
2015-Mar-28 11:33N 35°38' E 139°45'0 0.0
2015-Mar-28 10:33N 35°38' E 139°45'2 1.7
2015-Mar-28 09:33N 35°37' E 139°47'6 5.7
2015-Mar-28 08:33N 35°33' E 139°52'7 7.4
2015-Mar-28 07:33N 35°38' E 139°46'0 0.0
2015-Mar-28 06:33N 35°38' E 139°46'0 0.0
2015-Mar-28 05:33N 35°38' E 139°46'0 0.0
2015-Mar-28 04:33N 35°38' E 139°46'0 0.0
2015-Mar-28 03:33N 35°38' E 139°46'0 0.0
2015-Mar-28 02:33N 35°38' E 139°46'0 0.0
2015-Mar-28 01:33N 35°38' E 139°46'0 0.0
2015-Mar-28 00:33N 35°38' E 139°46'3 3.0
2015-Mar-27 23:33N 35°35' E 139°47'0 0.3
2015-Mar-27 22:33N 35°35' E 139°47'0 0.0
2015-Mar-27 21:33N 35°35' E 139°47'1 1.4
2015-Mar-27 20:33N 35°37' E 139°46'2 1.6
2015-Mar-27 19:33N 35°38' E 139°45'0 0.0
2015-Mar-27 18:33N 35°38' E 139°45'0 0.0
2015-Mar-27 17:33N 35°38' E 139°45'0 0.0
2015-Mar-27 16:33N 35°38' E 139°45'0 0.0
2015-Mar-27 15:33N 35°38' E 139°45'0 0.0
2015-Mar-27 14:33N 35°38' E 139°45'0 0.0
2015-Mar-27 13:33N 35°38' E 139°45'0 0.0
2015-Mar-27 12:33N 35°38' E 139°45'0 0.0
2015-Mar-27 11:33N 35°38' E 139°45'0 0.0
2015-Mar-27 10:33N 35°38' E 139°45'0 0.0
2015-Mar-27 09:33N 35°38' E 139°45'0 0.0
2015-Mar-27 08:33N 35°38' E 139°45'0 0.0
2015-Mar-27 07:33N 35°38' E 139°45'0 0.0
2015-Mar-27 06:33N 35°38' E 139°45'0 0.0
2015-Mar-27 05:33N 35°38' E 139°45'0 0.0
2015-Mar-27 04:33N 35°38' E 139°45'0 0.0
2015-Mar-27 03:33N 35°38' E 139°45'0 0.0
2015-Mar-27 02:33N 35°38' E 139°45'0 0.0
2015-Mar-27 01:33N 35°38' E 139°45'0 0.0
2015-Mar-27 00:33N 35°38' E 139°45'1 1.0
2015-Mar-26 23:33N 35°37' E 139°46'3 2.7
2015-Mar-26 22:33N 35°35' E 139°48'1 1.0
2015-Mar-26 21:34N 35°36' E 139°48'3 2.8
2015-Mar-26 20:33N 35°38' E 139°45'0 0.0
2015-Mar-26 19:33N 35°38' E 139°45'0 0.0
2015-Mar-26 18:33N 35°38' E 139°45'0 0.0
2015-Mar-26 17:33N 35°38' E 139°45'0 0.0
2015-Mar-26 16:33N 35°38' E 139°45'0 0.0
2015-Mar-26 15:33N 35°38' E 139°45'0 0.0
2015-Mar-26 14:33N 35°38' E 139°45'0 0.0
2015-Mar-26 13:33N 35°38' E 139°45'0 0.0
2015-Mar-26 12:33N 35°38' E 139°45'0 0.0
2015-Mar-26 11:33N 35°38' E 139°45'0 0.0
2015-Mar-26 10:33N 35°38' E 139°45'3 2.8
2015-Mar-26 09:33N 35°36' E 139°47'3 2.6
2015-Mar-26 08:33N 35°34' E 139°50'3 3.0
2015-Mar-26 07:33N 35°37' E 139°47'2 2.2
2015-Mar-26 06:33N 35°38' E 139°46'0 0.0
2015-Mar-26 05:33N 35°38' E 139°46'0 0.0
2015-Mar-26 04:33N 35°38' E 139°46'0 0.0
2015-Mar-26 03:33N 35°38' E 139°46'0 0.1
2015-Mar-26 02:33N 35°38' E 139°45'0 0.1
2015-Mar-26 01:33N 35°38' E 139°46'0 0.0
2015-Mar-26 00:33N 35°38' E 139°46'0 0.0
2015-Mar-25 23:33N 35°38' E 139°46'3 2.6
2015-Mar-25 22:33N 35°36' E 139°47'3 3.0
2015-Mar-25 21:33N 35°34' E 139°50'3 2.7
2015-Mar-25 20:33N 35°35' E 139°47'1 1.0
2015-Mar-25 19:33N 35°36' E 139°46'2 2.0
2015-Mar-25 18:33N 35°38' E 139°45'0 0.0
2015-Mar-25 17:33N 35°38' E 139°45'0 0.0
2015-Mar-25 16:33N 35°38' E 139°45'0 0.0
2015-Mar-25 15:33N 35°38' E 139°45'0 0.0
2015-Mar-25 14:33N 35°38' E 139°45'0 0.0
2015-Mar-25 13:33N 35°38' E 139°45'0 0.0
2015-Mar-25 12:33N 35°38' E 139°45'0 0.0
2015-Mar-25 11:33N 35°38' E 139°45'0 0.0
2015-Mar-25 10:33N 35°38' E 139°45'0 0.0
2015-Mar-25 09:33N 35°38' E 139°45'0 0.0
2015-Mar-25 08:33N 35°38' E 139°45'0 0.0
2015-Mar-25 07:33N 35°38' E 139°45'0 0.0
2015-Mar-25 06:33N 35°38' E 139°45'0 0.0
2015-Mar-25 05:33N 35°38' E 139°45'3 2.6
2015-Mar-25 04:33N 35°36' E 139°46'4 4.4
2015-Mar-25 03:33N 35°33' E 139°51'4 4.2
2015-Mar-25 02:33N 35°36' E 139°47'0 0.2
2015-Mar-25 01:33N 35°36' E 139°47'2 1.9
2015-Mar-25 00:33N 35°35' E 139°48'4 4.2
2015-Mar-24 23:33N 35°38' E 139°45'0 0.0
2015-Mar-24 22:33N 35°38' E 139°45'0 0.0
2015-Mar-24 21:33N 35°38' E 139°45'0 0.0
2015-Mar-24 20:33N 35°38' E 139°45'0 0.0
2015-Mar-24 19:33N 35°38' E 139°45'0 0.0
2015-Mar-24 18:33N 35°38' E 139°45'0 0.0
2015-Mar-24 17:33N 35°38' E 139°45'0 0.0
2015-Mar-24 16:33N 35°38' E 139°45'0 0.0
2015-Mar-24 15:33N 35°38' E 139°45'0 0.0
2015-Mar-24 14:33N 35°38' E 139°45'0 0.0
2015-Mar-24 13:33N 35°38' E 139°45'0 0.0
2015-Mar-24 12:33N 35°38' E 139°45'0 0.0
2015-Mar-24 11:33N 35°38' E 139°45'0 0.0
2015-Mar-24 10:33N 35°38' E 139°45'0 0.0
2015-Mar-24 09:33N 35°38' E 139°45'0 0.0
2015-Mar-24 08:33N 35°38' E 139°45'0 0.0
2015-Mar-24 07:33N 35°38' E 139°45'2 1.6
2015-Mar-24 06:33N 35°37' E 139°46'3 3.3
2015-Mar-24 05:33N 35°34' E 139°49'5 4.7
2015-Mar-24 04:33N 35°38' E 139°45'0 0.0
2015-Mar-24 03:34N 35°38' E 139°45'0 0.0
2015-Mar-24 02:33N 35°38' E 139°45'0 0.0
2015-Mar-24 01:33N 35°38' E 139°45'0 0.0
2015-Mar-24 00:32N 35°38' E 139°45'1 1.5
2015-Mar-23 23:33N 35°37' E 139°46'3 2.7
2015-Mar-23 22:33N 35°35' E 139°48'2 1.6
2015-Mar-23 21:33N 35°34' E 139°50'5 5.4
2015-Mar-23 20:33N 35°38' E 139°45'0 0.0
2015-Mar-23 19:33N 35°38' E 139°45'0 0.0
2015-Mar-23 18:33N 35°38' E 139°45'0 0.0
2015-Mar-23 17:33N 35°38' E 139°45'0 0.0
2015-Mar-23 16:33N 35°38' E 139°45'0 0.0
2015-Mar-23 15:33N 35°38' E 139°45'0 0.0
2015-Mar-23 14:33N 35°38' E 139°45'0 0.0
2015-Mar-23 13:33N 35°38' E 139°45'0 0.0
2015-Mar-23 12:33N 35°38' E 139°45'0 0.0
2015-Mar-23 11:33N 35°38' E 139°45'0 0.0
2015-Mar-23 10:33N 35°38' E 139°45'2 2.2
2015-Mar-23 09:33N 35°36' E 139°47'3 2.8
2015-Mar-23 08:33N 35°34' E 139°48'3 3.0
2015-Mar-23 07:33N 35°36' E 139°47'  

Dump ship's entire track history